Latest Weather Observations for Dum In Mirrie

IDD60901

Issued at 1:55 pm CST Friday 31 October 2014 (issued every 10 minutes, with the page automatically refreshed every 10 minutes)

About weather observations | Map of Darwin area stations | Latest observations for Darwin area | Other Formats
Station Details ID: 014277 Name: DUM IN MIRRIE AIRSTRIP Lat: -12.63 Lon: 130.37 Height: 3.5 m
Data from the previous 72 hours. | See also: Recent months at Dum In Mirrie
Date/Time
CST
Tmp

°C
App
Tmp
°C
Dew
Point
°C
Rel
Hum
%
Delta-T

°C
Wind Press
QNH
hPa
Press
MSL
hPa
Rain
since
9 am
mm
Dir
 
Spd
km/h
Gust
km/h
Spd
kts
Gust
kts
31/01:30pm 31.4 33.7 21.3 55 6.8 NW 11 19 6 10 1009.1 1009.1 0.0
31/01:00pm 31.5 33.5 20.8 53 7.1 NNW 11 17 6 9 1009.5 1009.5 0.0
31/12:30pm 31.2 33.2 20.8 54 6.9 NW 11 17 6 9 1010.0 1010.0 0.0
31/12:00pm 31.1 33.4 20.7 54 6.9 NW 9 20 5 11 1010.5 1010.5 0.0
31/11:30am 31.3 33.2 20.6 53 7.1 NW 11 19 6 10 1010.8 1010.8 0.0
31/11:00am 30.7 32.3 20.0 52 7.1 NNW 11 15 6 8 1010.9 1010.9 0.0
31/10:30am 31.8 34.1 20.7 51 7.4 N 9 15 5 8 1011.0 1011.0 0.0
31/10:00am 30.9 33.1 20.5 54 6.9 NNW 9 17 5 9 1011.1 1011.1 0.0
31/09:30am 30.5 32.8 20.7 55 6.5 N 9 17 5 9 1011.2 1011.2 0.0
31/09:00am 30.0 32.8 20.8 57 6.1 N 7 13 4 7 1011.1 1011.1 0.0
31/08:30am 29.7 33.0 21.4 61 5.6 NNW 6 9 3 5 1010.9 1010.9 0.0
31/08:00am 29.1 32.2 21.1 62 5.3 N 6 9 3 5 1010.6 1010.6 0.0
31/07:30am 28.1 32.6 22.3 70 3.9 NNW 2 4 1 2 1010.3 1010.3 0.0
31/07:00am 24.5 29.0 22.2 87 1.5 N 2 4 1 2 1009.7 1009.7 0.0
31/06:30am 22.9 26.2 20.8 88 1.4 N 4 4 2 2 1009.4 1009.4 0.0
31/06:00am 23.3 27.3 21.4 89 1.3 N 2 4 1 2 1009.1 1009.1 0.0
31/05:30am 23.5 27.9 21.4 88 1.4 CALM 0 4 0 2 1009.0 1009.0 0.0
31/05:00am 23.8 27.4 21.3 86 1.6 NNW 4 7 2 4 1008.6 1008.6 0.0
31/04:30am 24.0 27.7 21.5 86 1.7 NNW 4 6 2 3 1008.3 1008.3 0.0
31/04:00am 24.6 28.6 21.3 82 2.2 NNW 2 4 1 2 1008.0 1008.0 0.0
31/03:30am 25.8 29.8 22.1 80 2.5 NNW 4 6 2 3 1007.9 1007.9 0.0
31/03:00am 26.4 30.6 22.5 79 2.6 NNW 4 6 2 3 1007.9 1007.9 0.0
31/02:30am 26.8 31.0 22.4 77 3.0 NNW 4 9 2 5 1008.0 1008.0 0.0
31/02:00am 27.1 31.4 22.7 77 3.0 NNW 4 7 2 4 1008.3 1008.3 0.0
31/01:30am 27.5 31.7 23.1 77 3.0 NNW 6 11 3 6 1008.5 1008.5 0.0
31/01:00am 27.6 31.7 23.0 76 3.1 NNW 6 11 3 6 1008.7 1008.7 0.0
31/12:30am 27.7 31.8 23.3 77 3.0 NNW 7 11 4 6 1008.7 1008.7 0.0
31/12:00am 27.9 32.2 23.3 76 3.2 WNW 6 11 3 6 1009.0 1009.0 0.0
 
Date/Time
CST
Tmp

°C
App
Tmp
°C
Dew
Point
°C
Rel
Hum
%
Delta-T

°C
Wind Press
QNH
hPa
Press
MSL
hPa
Rain
since
9 am
mm
Dir
 
Spd
km/h
Gust
km/h
Spd
kts
Gust
kts
30/11:30pm 28.1 32.3 23.2 74 3.4 WNW 6 13 3 7 1009.1 1009.1 0.0
30/11:00pm 28.0 31.8 22.7 73 3.6 NW 7 13 4 7 1009.4 1009.4 0.0
30/10:30pm 28.1 31.9 22.8 73 3.6 NW 7 15 4 8 1009.3 1009.3 0.0
30/10:00pm 28.1 32.0 23.0 74 3.5 NW 7 13 4 7 1009.2 1009.2 0.0
30/09:30pm 28.2 32.1 22.9 73 3.6 NW 7 13 4 7 1008.9 1008.9 0.0
30/09:00pm 28.2 32.0 22.7 72 3.7 NW 7 13 4 7 1008.8 1008.8 0.0
30/08:30pm 28.2 31.8 22.4 71 3.9 NW 7 15 4 8 1008.4 1008.4 0.0
30/08:00pm 28.3 31.6 22.5 71 3.9 NNW 9 17 5 9 1008.1 1008.1 0.0
30/07:30pm 28.4 31.7 22.6 71 3.9 NNW 9 13 5 7 1007.8 1007.8 0.0
30/07:00pm 28.6 32.3 22.6 70 4.1 NNW 7 15 4 8 1007.6 1007.6 0.0
30/06:30pm 29.1 31.5 21.6 64 5.0 NNW 11 19 6 10 1007.5 1007.5 0.0
30/06:00pm 30.1 33.3 21.7 60 5.7 NNW 7 17 4 9 1007.4 1007.4 0.0
30/05:30pm 30.4 32.4 21.5 59 6.0 NNW 13 20 7 11 1007.4 1007.4 0.0
30/05:00pm 31.5 34.4 22.5 59 6.1 NW 11 17 6 9 1007.2 1007.2 0.0
30/04:30pm 32.2 35.4 22.3 56 6.8 NW 9 15 5 8 1007.1 1007.1 0.0
30/04:00pm 31.7 34.9 23.0 60 6.0 NW 11 20 6 11 1007.3 1007.3 0.0
30/03:30pm 31.5 34.6 22.8 60 6.0 NW 11 19 6 10 1007.6 1007.6 0.0
30/03:00pm 31.1 34.3 23.0 62 5.6 NW 11 20 6 11 1007.9 1007.9 0.0
30/02:30pm 31.9 34.6 22.9 59 6.2 NNW 13 24 7 13 1008.2 1008.2 0.0
30/02:00pm 31.8 34.4 23.9 63 5.5 N 17 26 9 14 1008.5 1008.5 0.0
30/01:30pm 31.9 35.3 24.0 63 5.5 N 13 22 7 12 1009.0 1009.0 0.0
30/01:00pm 30.6 32.9 23.5 66 4.9 N 17 26 9 14 1009.5 1009.5 0.0
30/12:30pm 32.1 36.0 24.2 63 5.5 N 11 20 6 11 1009.9 1009.9 0.0
30/12:00pm 31.0 34.0 23.4 64 5.2 N 13 24 7 13 1010.2 1010.2 0.0
30/11:30am 30.7 34.1 23.4 65 5.0 NNW 11 19 6 10 1010.5 1010.5 0.0
30/11:00am 31.1 34.6 23.5 64 5.3 N 11 19 6 10 1010.7 1010.7 0.0
30/10:30am 31.1 34.7 23.7 64 5.1 N 11 17 6 9 1010.9 1010.9 0.0
30/10:00am 29.7 32.8 22.9 67 4.6 NNW 11 19 6 10 1011.3 1011.3 0.0
30/09:30am 30.6 34.4 23.5 66 4.9 N 9 17 5 9 1011.5 1011.5 0.0
30/09:00am 30.2 34.2 23.1 65 4.9 N 7 17 4 9 1011.2 1011.2 0.0
30/08:30am 30.0 34.1 23.2 67 4.7 NNE 7 13 4 7 1011.0 1011.0 0.0
30/08:00am 29.3 33.8 23.0 69 4.3 NNE 4 7 2 4 1010.8 1010.8 0.0
30/07:30am 28.2 33.7 24.0 78 2.9 NE 2 6 1 3 1010.5 1010.5 0.0
30/07:00am 24.6 29.8 22.8 90 1.2 CALM 0 0 0 0 1010.3 1010.3 0.0
30/06:30am 23.4 27.9 22.2 93 0.8 ENE 2 2 1 1 1009.9 1009.9 0.0
30/06:00am 23.0 26.6 21.3 90 1.1 N 4 4 2 2 1009.4 1009.4 0.0
30/05:30am 23.4 27.5 21.5 89 1.3 NNW 2 4 1 2 1009.1 1009.1 0.0
30/05:00am 23.7 28.0 22.0 90 1.1 NNW 2 4 1 2 1009.0 1009.0 0.0
30/04:30am 23.5 27.5 21.4 88 1.4 NNW 2 4 1 2 1008.9 1008.9 0.0
30/04:00am 23.8 28.3 21.5 87 1.5 CALM 0 0 0 0 1008.9 1008.9 0.0
30/03:30am 24.2 28.8 21.7 86 1.7 CALM 0 0 0 0 1009.1 1009.1 0.0
30/03:00am 24.4 28.8 21.3 83 2.0 CALM 0 0 0 0 1009.5 1009.5 0.0
30/02:30am 25.3 29.3 21.4 79 2.6 NNE 2 4 1 2 1009.5 1009.5 0.0
30/02:00am 26.1 30.7 21.7 77 2.9 CALM 0 2 0 1 1009.6 1009.6 0.0
30/01:30am 26.6 30.5 21.8 75 3.2 N 4 6 2 3 1009.9 1009.9 0.0
30/01:00am 27.3 30.9 22.0 73 3.6 N 6 7 3 4 1010.2 1010.2 0.0
30/12:30am 27.6 31.7 22.3 73 3.6 N 4 9 2 5 1010.5 1010.5 0.0
30/12:00am 27.9 31.7 22.4 72 3.7 NNW 6 9 3 5 1010.5 1010.5 0.0
 
Date/Time
CST
Tmp

°C
App
Tmp
°C
Dew
Point
°C
Rel
Hum
%
Delta-T

°C
Wind Press
QNH
hPa
Press
MSL
hPa
Rain
since
9 am
mm
Dir
 
Spd
km/h
Gust
km/h
Spd
kts
Gust
kts
29/11:30pm 28.2 32.0 22.4 71 3.9 NNW 6 11 3 6 1010.7 1010.7 0.0
29/11:00pm 28.4 32.6 23.1 73 3.6 NW 6 9 3 5 1010.7 1010.7 0.0
29/10:30pm 28.6 32.7 23.3 73 3.6 NW 7 13 4 7 1010.7 1010.7 0.0
29/10:00pm 28.8 32.9 23.2 71 3.8 WNW 7 17 4 9 1010.6 1010.6 0.0
29/09:30pm 28.8 33.0 23.5 73 3.6 WNW 7 13 4 7 1010.4 1010.4 0.0
29/09:00pm 28.8 33.0 23.5 73 3.6 WNW 7 13 4 7 1010.0 1010.0 0.0
29/08:30pm 28.9 33.2 23.6 73 3.7 WNW 7 11 4 6 1009.9 1009.9 0.0
29/08:00pm 28.8 32.6 23.5 73 3.6 W 9 15 5 8 1009.5 1009.5 0.0
29/07:30pm 28.7 33.0 23.6 74 3.5 W 7 15 4 8 1009.2 1009.2 0.0
29/07:00pm 28.6 32.3 23.3 73 3.6 W 9 17 5 9 1009.2 1009.2 0.0
29/06:30pm 28.9 32.9 23.1 71 4.0 WNW 7 15 4 8 1009.1 1009.1 0.0
29/06:00pm 29.5 33.6 23.2 69 4.3 WNW 7 15 4 8 1008.9 1008.9 0.0
29/05:30pm 30.0 33.7 23.2 67 4.7 WNW 9 17 5 9 1008.7 1008.7 0.0
29/05:00pm 30.3 33.6 23.2 65 4.9 WNW 11 19 6 10 1008.6 1008.6 0.0
29/04:30pm 30.4 33.5 22.8 64 5.2 NW 11 20 6 11 1008.5 1008.5 0.0
29/04:00pm 30.8 34.3 23.5 65 5.0 WNW 11 22 6 12 1008.7 1008.7 0.0
29/03:30pm 31.0 34.1 22.9 62 5.6 WNW 11 17 6 9 1008.9 1008.9 0.0
29/03:00pm 31.6 34.7 22.9 60 6.0 W 11 20 6 11 1009.0 1009.0 0.0
29/02:30pm 31.2 34.0 23.0 61 5.6 NW 13 19 7 10 1009.3 1009.3 0.0
29/02:00pm 31.4 34.2 23.0 61 5.8 WNW 13 19 7 10 1009.8 1009.8 0.0
29/01:30pm 31.7 34.5 23.0 60 6.0 NW 13 22 7 12 1010.2 1010.2 0.0
29/01:00pm 32.0 35.2 23.0 59 6.2 NNW 11 22 6 12 1010.7 1010.7 0.0
29/12:30pm 31.6 34.3 22.9 60 6.0 NW 13 22 7 12 1011.2 1011.2 0.0
29/12:00pm 31.5 34.0 22.5 59 6.1 NW 13 22 7 12 1011.8 1011.8 0.0
29/11:30am 32.4 35.9 22.8 57 6.6 NW 9 15 5 8 1012.1 1012.1 0.0
29/11:00am 31.2 34.3 22.2 58 6.1 WSW 9 20 5 11 1012.5 1012.5 0.0
29/10:30am 31.9 35.1 21.7 54 6.9 ENE 7 11 4 6 1013.0 1013.0 0.0
29/10:00am 30.8 34.3 22.1 59 5.9 S 7 13 4 7 1012.9 1012.9 0.0
29/09:30am 30.9 34.9 22.8 62 5.5 N 6 11 3 6 1012.8 1012.8 0.0
29/09:00am 31.2 34.9 22.2 58 6.1 ENE 6 13 3 7 1012.6 1012.6 0.0
29/08:30am 29.2 32.7 22.2 66 4.7 N 7 13 4 7 1012.4 1012.4 0.0
29/08:00am 29.2 33.0 22.7 68 4.4 NNE 7 11 4 6 1012.2 1012.2 0.0
29/07:30am 28.4 32.7 23.3 74 3.5 NE 6 9 3 5 1012.1 1012.1 0.0
29/07:00am 27.0 32.5 24.1 84 2.0 NE 2 4 1 2 1011.7 1011.7 0.0
29/06:30am 26.2 31.4 23.5 85 1.8 NE 2 4 1 2 1011.3 1011.3 0.0
29/06:00am 26.6 31.7 23.3 82 2.3 NNE 2 4 1 2 1010.9 1010.9 0.0
29/05:30am 27.0 31.5 23.7 82 2.3 N 6 9 3 5 1010.5 1010.5 0.0
29/05:00am 27.0 31.7 23.9 83 2.1 N 6 7 3 4 1010.2 1010.2 0.0
29/04:30am 27.1 32.2 24.0 83 2.1 N 4 9 2 5 1009.9 1009.9 0.0
29/04:00am 27.1 31.9 24.2 84 2.0 N 6 9 3 5 1009.7 1009.7 0.0
29/03:30am 26.9 32.1 24.2 85 1.9 N 4 9 2 5 1009.9 1009.9 0.0
29/03:00am 27.0 32.1 24.1 84 2.0 N 4 6 2 3 1010.0 1010.0 0.0
29/02:30am 26.9 32.1 24.2 85 1.9 N 4 6 2 3 1010.1 1010.1 0.0
29/02:00am 26.8 31.8 23.9 84 2.0 N 4 6 2 3 1010.3 1010.3 0.0
29/01:30am 27.2 32.3 24.1 83 2.1 N 4 6 2 3 1010.6 1010.6 0.0
29/01:00am 27.2 32.5 23.7 81 2.4 N 2 4 1 2 1010.5 1010.5 0.0
29/12:30am 27.9 33.0 24.1 80 2.6 N 4 7 2 4 1010.5 1010.5 0.0
29/12:00am 28.1 33.0 23.7 77 3.0 N 4 6 2 3 1010.6 1010.6 0.0
 
Date/Time
CST
Tmp

°C
App
Tmp
°C
Dew
Point
°C
Rel
Hum
%
Delta-T

°C
Wind Press
QNH
hPa
Press
MSL
hPa
Rain
since
9 am
mm
Dir
 
Spd
km/h
Gust
km/h
Spd
kts
Gust
kts
28/11:30pm 28.3 33.0 23.9 77 3.0 NNW 6 9 3 5 1010.5 1010.5 0.0
28/11:00pm 28.4 32.7 22.6 71 3.9 WNW 4 7 2 4 1010.6 1010.6 0.0
28/10:30pm 28.6 32.6 22.1 68 4.4 NW 4 6 2 3 1010.3 1010.3 0.0
28/10:00pm 28.6 32.1 21.1 64 5.0 NNW 4 7 2 4 1010.1 1010.1 0.0
28/09:30pm 29.1 32.6 22.1 66 4.7 WNW 7 13 4 7 1010.0 1010.0 0.0
28/09:00pm 29.0 32.7 22.2 66 4.6 NW 6 11 3 6 1009.8 1009.8 0.0
28/08:30pm 29.1 33.1 22.8 69 4.3 WNW 6 11 3 6 1009.5 1009.5 0.0
28/08:00pm 29.1 32.7 22.1 66 4.7 W 6 9 3 5 1009.0 1009.0 0.0
28/07:30pm 28.9 32.8 22.9 70 4.1 WNW 7 13 4 7 1008.6 1008.6 0.0
28/07:00pm 28.9 33.2 23.6 73 3.6 WNW 7 11 4 6 1008.4 1008.4 0.0
28/06:30pm 29.1 32.9 23.5 72 3.9 WNW 9 15 5 8 1008.3 1008.3 0.0
28/06:00pm 29.8 33.9 24.0 71 4.0 WNW 9 15 5 8 1008.1 1008.1 0.0
28/05:30pm 30.3 34.6 24.2 70 4.3 WNW 9 19 5 10 1007.9 1007.9 0.0
28/05:00pm 30.5 34.8 24.2 69 4.4 WNW 9 19 5 10 1007.8 1007.8 0.0
28/04:30pm 30.8 34.6 24.0 67 4.7 NW 11 20 6 11 1007.6 1007.6 0.0
28/04:00pm 31.4 35.2 24.0 65 5.1 WNW 11 19 6 10 1007.6 1007.6 0.0
28/03:30pm 31.6 35.9 24.2 65 5.2 WNW 9 17 5 9 1008.0 1008.0 0.0
28/03:00pm 31.5 34.8 23.9 64 5.3 WNW 13 20 7 11 1008.2 1008.2 0.0
28/02:30pm 32.0 35.8 24.1 63 5.5 WNW 11 20 6 11 1008.4 1008.4 0.0
28/02:00pm 31.4 34.8 24.0 65 5.1 WNW 13 19 7 10 1008.9 1008.9 0.0

Latest Capital City Observations: Canberra | Sydney | Melbourne | Brisbane | Adelaide | Perth | Hobart | Darwin

Other Formats:

Comma delimited format used in spreadsheet applications
http://www.bom.gov.au/fwo/IDD60901/IDD60901.94116.axf

JavaScript Object Notation format (JSON) in row-major order
http://www.bom.gov.au/fwo/IDD60901/IDD60901.94116.json